METAR Data
IDs: Format: Raw Decoded Include TAF

Data at: 1429 UTC 27 Nov 2021

EBBE 271355Z AUTO 21008KT 9999 FEW016/// OVC020/// 04/01 Q0990 WHT